sensor_id;sensor_type;location;lat;lon;timestamp;pressure;altitude;pressure_sealevel;temperature;humidity
18697;BME280;22617;43.690;27.956;2023-02-08T00:03:28;100602.75;;;-2.92;85.92
18697;BME280;22617;43.690;27.956;2023-02-08T00:08:33;100608.88;;;-2.90;85.42
18697;BME280;22617;43.690;27.956;2023-02-08T00:13:37;100608.38;;;-3.08;84.87
18697;BME280;22617;43.690;27.956;2023-02-08T00:18:43;100607.91;;;-3.14;84.63
18697;BME280;22617;43.690;27.956;2023-02-08T00:23:48;100608.81;;;-3.14;84.59
18697;BME280;22617;43.690;27.956;2023-02-08T00:28:51;100612.00;;;-3.16;84.19
18697;BME280;22617;43.690;27.956;2023-02-08T00:33:54;100625.97;;;-3.11;84.05
18697;BME280;22617;43.690;27.956;2023-02-08T00:39:01;100625.88;;;-3.13;84.27
18697;BME280;22617;43.690;27.956;2023-02-08T00:44:04;100627.56;;;-3.01;84.02
18697;BME280;22617;43.690;27.956;2023-02-08T00:49:09;100628.31;;;-3.14;82.05
18697;BME280;22617;43.690;27.956;2023-02-08T00:54:15;100633.75;;;-3.10;80.74
18697;BME280;22617;43.690;27.956;2023-02-08T00:59:18;100643.13;;;-3.20;80.42
18697;BME280;22617;43.690;27.956;2023-02-08T01:04:22;100635.56;;;-3.30;80.14
18697;BME280;22617;43.690;27.956;2023-02-08T01:09:27;100636.00;;;-3.36;78.09
18697;BME280;22617;43.690;27.956;2023-02-08T01:14:30;100639.31;;;-3.37;76.78
18697;BME280;22617;43.690;27.956;2023-02-08T01:19:34;100645.41;;;-3.35;75.39
18697;BME280;22617;43.690;27.956;2023-02-08T01:24:39;100641.44;;;-3.31;73.14
18697;BME280;22617;43.690;27.956;2023-02-08T01:29:43;100644.13;;;-3.52;71.63
18697;BME280;22617;43.690;27.956;2023-02-08T01:34:46;100653.59;;;-3.61;71.69
18697;BME280;22617;43.690;27.956;2023-02-08T01:39:51;100649.25;;;-3.62;73.08
18697;BME280;22617;43.690;27.956;2023-02-08T01:45:25;100643.41;;;-3.61;72.65
18697;BME280;22617;43.690;27.956;2023-02-08T01:50:36;100655.31;;;-3.71;71.95
18697;BME280;22617;43.690;27.956;2023-02-08T01:55:47;100660.78;;;-3.77;71.45
18697;BME280;22617;43.690;27.956;2023-02-08T02:00:53;100679.16;;;-3.81;71.05
18697;BME280;22617;43.690;27.956;2023-02-08T02:06:02;100681.16;;;-3.77;70.84
18697;BME280;22617;43.690;27.956;2023-02-08T02:11:13;100689.50;;;-3.89;71.90
18697;BME280;22617;43.690;27.956;2023-02-08T02:16:18;100700.88;;;-4.06;73.05
18697;BME280;22617;43.690;27.956;2023-02-08T02:21:40;100701.41;;;-4.10;74.67
18697;BME280;22617;43.690;27.956;2023-02-08T02:27:02;100709.03;;;-4.10;75.54
18697;BME280;22617;43.690;27.956;2023-02-08T02:32:17;100705.22;;;-4.15;75.91
18697;BME280;22617;43.690;27.956;2023-02-08T02:37:35;100708.47;;;-4.48;75.49
18697;BME280;22617;43.690;27.956;2023-02-08T02:42:53;100712.66;;;-4.59;75.55
18697;BME280;22617;43.690;27.956;2023-02-08T02:48:24;100722.47;;;-4.63;74.90
18697;BME280;22617;43.690;27.956;2023-02-08T02:53:37;100729.06;;;-4.45;74.49
18697;BME280;22617;43.690;27.956;2023-02-08T02:58:44;100739.38;;;-4.54;74.47
18697;BME280;22617;43.690;27.956;2023-02-08T03:03:50;100739.50;;;-4.42;74.47
18697;BME280;22617;43.690;27.956;2023-02-08T03:09:12;100738.09;;;-4.28;74.19
18697;BME280;22617;43.690;27.956;2023-02-08T03:14:40;100735.03;;;-4.24;73.86
18697;BME280;22617;43.690;27.956;2023-02-08T03:19:56;100739.22;;;-4.25;73.71
18697;BME280;22617;43.690;27.956;2023-02-08T03:25:07;100737.72;;;-4.23;73.85
18697;BME280;22617;43.690;27.956;2023-02-08T03:30:15;100746.19;;;-4.12;73.57
18697;BME280;22617;43.690;27.956;2023-02-08T03:35:24;100749.16;;;-4.08;73.76
18697;BME280;22617;43.690;27.956;2023-02-08T03:40:37;100755.59;;;-4.01;73.94
18697;BME280;22617;43.690;27.956;2023-02-08T03:45:46;100768.09;;;-4.04;73.98
18697;BME280;22617;43.690;27.956;2023-02-08T03:50:52;100772.25;;;-3.84;74.60
18697;BME280;22617;43.690;27.956;2023-02-08T03:56:01;100770.47;;;-3.85;74.59
18697;BME280;22617;43.690;27.956;2023-02-08T04:01:12;100774.28;;;-3.80;74.41
18697;BME280;22617;43.690;27.956;2023-02-08T04:06:20;100772.66;;;-3.90;74.62
18697;BME280;22617;43.690;27.956;2023-02-08T04:11:24;100777.97;;;-3.77;74.38
18697;BME280;22617;43.690;27.956;2023-02-08T04:16:27;100780.41;;;-3.88;74.46
18697;BME280;22617;43.690;27.956;2023-02-08T04:21:32;100787.66;;;-3.83;74.33
18697;BME280;22617;43.690;27.956;2023-02-08T04:26:36;100788.91;;;-3.78;74.18
18697;BME280;22617;43.690;27.956;2023-02-08T04:31:39;100793.75;;;-3.71;74.77
18697;BME280;22617;43.690;27.956;2023-02-08T04:36:44;100800.91;;;-3.87;74.86
18697;BME280;22617;43.690;27.956;2023-02-08T04:41:47;100808.44;;;-3.88;75.50
18697;BME280;22617;43.690;27.956;2023-02-08T04:46:51;100808.81;;;-3.94;75.98
18697;BME280;22617;43.690;27.956;2023-02-08T04:51:56;100817.97;;;-3.96;76.45
18697;BME280;22617;43.690;27.956;2023-02-08T04:57:00;100824.34;;;-3.91;76.99
18697;BME280;22617;43.690;27.956;2023-02-08T05:02:03;100838.88;;;-4.00;77.16
18697;BME280;22617;43.690;27.956;2023-02-08T05:07:08;100840.38;;;-4.02;77.84
18697;BME280;22617;43.690;27.956;2023-02-08T05:12:11;100836.56;;;-4.07;78.27
18697;BME280;22617;43.690;27.956;2023-02-08T05:17:15;100845.59;;;-4.11;78.74
18697;BME280;22617;43.690;27.956;2023-02-08T05:22:20;100856.81;;;-4.09;79.37
18697;BME280;22617;43.690;27.956;2023-02-08T05:27:23;100863.41;;;-4.21;79.38
18697;BME280;22617;43.690;27.956;2023-02-08T05:32:27;100862.66;;;-4.20;79.69
18697;BME280;22617;43.690;27.956;2023-02-08T05:37:32;100872.09;;;-4.19;80.56
18697;BME280;22617;43.690;27.956;2023-02-08T05:42:35;100882.00;;;-4.22;80.93
18697;BME280;22617;43.690;27.956;2023-02-08T05:47:39;100876.66;;;-4.15;81.78
18697;BME280;22617;43.690;27.956;2023-02-08T05:52:44;100876.91;;;-4.22;82.06
18697;BME280;22617;43.690;27.956;2023-02-08T05:57:47;100890.78;;;-4.28;82.25
18697;BME280;22617;43.690;27.956;2023-02-08T06:02:51;100890.28;;;-4.14;82.65
18697;BME280;22617;43.690;27.956;2023-02-08T06:07:57;100892.34;;;-4.00;83.05
18697;BME280;22617;43.690;27.956;2023-02-08T06:13:00;100896.66;;;-3.89;83.15
18697;BME280;22617;43.690;27.956;2023-02-08T06:18:04;100900.59;;;-3.92;83.17
18697;BME280;22617;43.690;27.956;2023-02-08T06:23:09;100906.47;;;-3.93;83.07
18697;BME280;22617;43.690;27.956;2023-02-08T06:28:12;100908.25;;;-3.72;82.76
18697;BME280;22617;43.690;27.956;2023-02-08T06:33:16;100907.72;;;-3.68;82.29
18697;BME280;22617;43.690;27.956;2023-02-08T06:38:21;100912.94;;;-3.57;82.06
18697;BME280;22617;43.690;27.956;2023-02-08T06:43:25;100924.63;;;-3.38;81.16
18697;BME280;22617;43.690;27.956;2023-02-08T06:48:28;100915.69;;;-3.23;80.70
18697;BME280;22617;43.690;27.956;2023-02-08T06:53:33;100936.75;;;-3.36;80.41
18697;BME280;22617;43.690;27.956;2023-02-08T06:58:36;100929.34;;;-3.43;79.77
18697;BME280;22617;43.690;27.956;2023-02-08T07:03:40;100940.06;;;-3.27;79.01
18697;BME280;22617;43.690;27.956;2023-02-08T07:08:46;100942.25;;;-3.41;78.30
18697;BME280;22617;43.690;27.956;2023-02-08T07:13:50;100947.06;;;-3.44;78.33
18697;BME280;22617;43.690;27.956;2023-02-08T07:18:56;100946.44;;;-3.42;78.64
18697;BME280;22617;43.690;27.956;2023-02-08T07:24:01;100950.06;;;-3.08;77.79
18697;BME280;22617;43.690;27.956;2023-02-08T07:29:04;100950.13;;;-3.28;77.66
18697;BME280;22617;43.690;27.956;2023-02-08T07:34:08;100943.69;;;-3.03;77.57
18697;BME280;22617;43.690;27.956;2023-02-08T07:39:13;100945.31;;;-2.93;76.85
18697;BME280;22617;43.690;27.956;2023-02-08T07:44:17;100941.97;;;-2.92;77.33
18697;BME280;22617;43.690;27.956;2023-02-08T07:49:20;100950.25;;;-2.85;77.90
18697;BME280;22617;43.690;27.956;2023-02-08T07:54:25;100949.28;;;-2.65;78.44
18697;BME280;22617;43.690;27.956;2023-02-08T07:59:28;100954.22;;;-2.56;77.54
18697;BME280;22617;43.690;27.956;2023-02-08T08:04:32;100962.16;;;-2.32;77.40
18697;BME280;22617;43.690;27.956;2023-02-08T08:09:37;100961.84;;;-2.46;75.26
18697;BME280;22617;43.690;27.956;2023-02-08T08:14:40;100968.19;;;-2.41;76.06
18697;BME280;22617;43.690;27.956;2023-02-08T08:19:44;100966.06;;;-2.47;76.95
18697;BME280;22617;43.690;27.956;2023-02-08T08:24:49;100981.94;;;-2.61;77.45
18697;BME280;22617;43.690;27.956;2023-02-08T08:29:52;101003.69;;;-2.76;77.76
18697;BME280;22617;43.690;27.956;2023-02-08T08:34:56;100997.69;;;-2.87;78.03
18697;BME280;22617;43.690;27.956;2023-02-08T08:40:02;101002.91;;;-2.75;78.56
18697;BME280;22617;43.690;27.956;2023-02-08T08:45:08;101010.25;;;-3.00;79.23
18697;BME280;22617;43.690;27.956;2023-02-08T08:50:12;101016.94;;;-2.70;79.06
18697;BME280;22617;43.690;27.956;2023-02-08T08:55:17;101015.72;;;-3.05;78.91
18697;BME280;22617;43.690;27.956;2023-02-08T09:00:20;101018.69;;;-2.59;78.16
18697;BME280;22617;43.690;27.956;2023-02-08T09:05:24;101017.09;;;-2.47;77.93
18697;BME280;22617;43.690;27.956;2023-02-08T09:10:29;101012.59;;;-2.71;78.19
18697;BME280;22617;43.690;27.956;2023-02-08T09:15:32;101033.44;;;-2.97;78.81
18697;BME280;22617;43.690;27.956;2023-02-08T09:20:36;101042.34;;;-3.02;78.66
18697;BME280;22617;43.690;27.956;2023-02-08T09:25:41;101038.44;;;-2.98;79.32
18697;BME280;22617;43.690;27.956;2023-02-08T09:30:45;101033.72;;;-3.04;78.99
18697;BME280;22617;43.690;27.956;2023-02-08T09:35:48;101033.84;;;-3.02;79.73
18697;BME280;22617;43.690;27.956;2023-02-08T09:41:04;101027.84;;;-3.13;80.16
18697;BME280;22617;43.690;27.956;2023-02-08T09:46:15;101033.69;;;-2.94;80.64
18697;BME280;22617;43.690;27.956;2023-02-08T09:51:24;101021.19;;;-2.91;79.87
18697;BME280;22617;43.690;27.956;2023-02-08T09:56:34;101021.34;;;-2.99;79.64
18697;BME280;22617;43.690;27.956;2023-02-08T10:01:41;101012.53;;;-2.51;78.86
18697;BME280;22617;43.690;27.956;2023-02-08T10:06:44;101007.41;;;-2.19;78.15
18697;BME280;22617;43.690;27.956;2023-02-08T10:12:06;100988.34;;;-2.12;77.96
18697;BME280;22617;43.690;27.956;2023-02-08T10:17:46;101007.34;;;-2.09;77.14
18697;BME280;22617;43.690;27.956;2023-02-08T10:22:58;101005.63;;;-1.98;76.35
18697;BME280;22617;43.690;27.956;2023-02-08T10:28:20;101006.16;;;-1.81;76.09
18697;BME280;22617;43.690;27.956;2023-02-08T10:33:31;101002.88;;;-2.33;77.45
18697;BME280;22617;43.690;27.956;2023-02-08T10:38:41;101003.78;;;-2.33;77.48
18697;BME280;22617;43.690;27.956;2023-02-08T10:43:56;101007.47;;;-2.61;77.17
18697;BME280;22617;43.690;27.956;2023-02-08T10:49:15;101012.91;;;-2.46;76.97
18697;BME280;22617;43.690;27.956;2023-02-08T10:54:23;100996.47;;;-2.28;76.80
18697;BME280;22617;43.690;27.956;2023-02-08T10:59:31;101009.00;;;-2.31;76.46
18697;BME280;22617;43.690;27.956;2023-02-08T11:04:56;101009.91;;;-2.31;76.21
18697;BME280;22617;43.690;27.956;2023-02-08T11:10:21;100997.38;;;-2.28;75.66
18697;BME280;22617;43.690;27.956;2023-02-08T11:15:36;101012.00;;;-2.25;75.18
18697;BME280;22617;43.690;27.956;2023-02-08T11:20:41;101011.44;;;-2.11;74.91
18697;BME280;22617;43.690;27.956;2023-02-08T11:25:44;101010.63;;;-1.78;74.51
18697;BME280;22617;43.690;27.956;2023-02-08T11:31:15;101018.94;;;-2.02;74.34
18697;BME280;22617;43.690;27.956;2023-02-08T11:36:20;101021.03;;;-1.53;74.60
18697;BME280;22617;43.690;27.956;2023-02-08T11:41:32;101028.13;;;-1.61;73.97
18697;BME280;22617;43.690;27.956;2023-02-08T11:46:45;101029.94;;;-2.03;73.97
18697;BME280;22617;43.690;27.956;2023-02-08T11:51:50;101032.84;;;-1.99;74.71
18697;BME280;22617;43.690;27.956;2023-02-08T11:57:00;101043.69;;;-2.23;75.08
18697;BME280;22617;43.690;27.956;2023-02-08T12:02:26;101040.72;;;-2.49;74.96
18697;BME280;22617;43.690;27.956;2023-02-08T12:07:41;101031.28;;;-2.18;74.90
18697;BME280;22617;43.690;27.956;2023-02-08T12:13:12;101029.03;;;-1.82;74.39
18697;BME280;22617;43.690;27.956;2023-02-08T12:23:48;101036.16;;;-2.22;74.21
18697;BME280;22617;43.690;27.956;2023-02-08T12:29:07;101032.47;;;-1.82;73.51
18697;BME280;22617;43.690;27.956;2023-02-08T12:34:19;101039.91;;;-1.85;73.38
18697;BME280;22617;43.690;27.956;2023-02-08T12:39:35;101040.28;;;-1.58;73.21
18697;BME280;22617;43.690;27.956;2023-02-08T12:45:19;101048.78;;;-1.69;73.20
18697;BME280;22617;43.690;27.956;2023-02-08T12:50:38;101062.56;;;-1.89;73.56
18697;BME280;22617;43.690;27.956;2023-02-08T12:55:45;101067.34;;;-2.04;73.71
18697;BME280;22617;43.690;27.956;2023-02-08T13:00:51;101074.53;;;-2.10;74.38
18697;BME280;22617;43.690;27.956;2023-02-08T13:05:59;101073.41;;;-2.13;73.92
18697;BME280;22617;43.690;27.956;2023-02-08T13:11:10;101071.22;;;-2.09;73.61
18697;BME280;22617;43.690;27.956;2023-02-08T13:16:23;101072.81;;;-2.21;74.35
18697;BME280;22617;43.690;27.956;2023-02-08T13:21:34;101064.63;;;-2.17;74.46
18697;BME280;22617;43.690;27.956;2023-02-08T13:26:42;101066.34;;;-2.38;74.72
18697;BME280;22617;43.690;27.956;2023-02-08T13:31:49;101069.13;;;-2.35;74.25
18697;BME280;22617;43.690;27.956;2023-02-08T13:36:56;101079.44;;;-2.23;74.82
18697;BME280;22617;43.690;27.956;2023-02-08T13:42:03;101064.38;;;-2.30;74.26
18697;BME280;22617;43.690;27.956;2023-02-08T13:47:22;101066.09;;;-2.09;74.12
18697;BME280;22617;43.690;27.956;2023-02-08T13:52:46;101070.81;;;-2.35;74.57
18697;BME280;22617;43.690;27.956;2023-02-08T13:57:52;101076.63;;;-2.16;74.74
18697;BME280;22617;43.690;27.956;2023-02-08T14:03:00;101073.38;;;-2.35;74.61
18697;BME280;22617;43.690;27.956;2023-02-08T14:08:15;101077.59;;;-2.36;75.25
18697;BME280;22617;43.690;27.956;2023-02-08T14:13:27;101083.72;;;-2.44;74.77
18697;BME280;22617;43.690;27.956;2023-02-08T14:18:31;101087.91;;;-2.44;74.93
18697;BME280;22617;43.690;27.956;2023-02-08T14:23:39;101089.09;;;-2.51;74.53
18697;BME280;22617;43.690;27.956;2023-02-08T14:28:46;101093.91;;;-2.44;74.43
18697;BME280;22617;43.690;27.956;2023-02-08T14:33:59;101095.66;;;-2.65;74.24
18697;BME280;22617;43.690;27.956;2023-02-08T14:39:22;101103.28;;;-2.54;74.41
18697;BME280;22617;43.690;27.956;2023-02-08T14:44:57;101105.84;;;-2.54;74.32
18697;BME280;22617;43.690;27.956;2023-02-08T14:50:05;101107.59;;;-2.53;74.00
18697;BME280;22617;43.690;27.956;2023-02-08T14:55:18;101113.50;;;-2.65;74.21
18697;BME280;22617;43.690;27.956;2023-02-08T15:00:31;101112.09;;;-2.61;74.73
18697;BME280;22617;43.690;27.956;2023-02-08T15:05:40;101116.59;;;-2.69;75.54
18697;BME280;22617;43.690;27.956;2023-02-08T15:10:47;101119.00;;;-2.90;76.17
18697;BME280;22617;43.690;27.956;2023-02-08T15:15:52;101134.06;;;-2.93;76.65
18697;BME280;22617;43.690;27.956;2023-02-08T15:21:02;101139.03;;;-3.15;76.88
18697;BME280;22617;43.690;27.956;2023-02-08T15:26:19;101143.88;;;-3.18;76.67
18697;BME280;22617;43.690;27.956;2023-02-08T15:31:28;101152.13;;;-3.41;76.43
18697;BME280;22617;43.690;27.956;2023-02-08T15:36:34;101172.13;;;-3.35;76.55
18697;BME280;22617;43.690;27.956;2023-02-08T15:41:40;101174.03;;;-3.43;77.32
18697;BME280;22617;43.690;27.956;2023-02-08T15:46:44;101182.72;;;-3.41;77.53
18697;BME280;22617;43.690;27.956;2023-02-08T15:51:48;101174.41;;;-3.48;77.67
18697;BME280;22617;43.690;27.956;2023-02-08T15:56:55;101184.59;;;-3.48;77.71
18697;BME280;22617;43.690;27.956;2023-02-08T16:02:14;101180.53;;;-3.46;77.88
18697;BME280;22617;43.690;27.956;2023-02-08T16:07:26;101176.81;;;-3.60;77.72
18697;BME280;22617;43.690;27.956;2023-02-08T16:12:33;101176.66;;;-3.62;77.95
18697;BME280;22617;43.690;27.956;2023-02-08T16:17:42;101181.75;;;-3.62;77.89
18697;BME280;22617;43.690;27.956;2023-02-08T16:22:54;101196.78;;;-3.65;77.86
18697;BME280;22617;43.690;27.956;2023-02-08T16:27:59;101197.19;;;-3.60;77.62
18697;BME280;22617;43.690;27.956;2023-02-08T16:33:07;101206.69;;;-3.68;77.35
18697;BME280;22617;43.690;27.956;2023-02-08T16:38:17;101207.50;;;-3.59;77.26
18697;BME280;22617;43.690;27.956;2023-02-08T16:43:25;101208.75;;;-3.64;77.14
18697;BME280;22617;43.690;27.956;2023-02-08T16:48:31;101216.34;;;-3.74;76.81
18697;BME280;22617;43.690;27.956;2023-02-08T16:53:38;101219.47;;;-3.58;77.08
18697;BME280;22617;43.690;27.956;2023-02-08T16:58:46;101213.78;;;-3.74;77.14
18697;BME280;22617;43.690;27.956;2023-02-08T17:03:50;101216.88;;;-3.68;76.61
18697;BME280;22617;43.690;27.956;2023-02-08T17:08:54;101220.69;;;-3.73;76.79
18697;BME280;22617;43.690;27.956;2023-02-08T17:13:59;101212.19;;;-3.63;76.86
18697;BME280;22617;43.690;27.956;2023-02-08T17:19:03;101208.69;;;-3.84;77.05
18697;BME280;22617;43.690;27.956;2023-02-08T17:24:07;101203.94;;;-3.89;77.27
18697;BME280;22617;43.690;27.956;2023-02-08T17:29:12;101206.81;;;-3.95;77.39
18697;BME280;22617;43.690;27.956;2023-02-08T17:34:16;101207.31;;;-3.99;77.22
18697;BME280;22617;43.690;27.956;2023-02-08T17:39:21;101199.78;;;-3.98;77.50
18697;BME280;22617;43.690;27.956;2023-02-08T17:44:26;101199.78;;;-3.98;77.40
18697;BME280;22617;43.690;27.956;2023-02-08T17:49:32;101206.13;;;-4.03;77.24
18697;BME280;22617;43.690;27.956;2023-02-08T17:54:38;101211.94;;;-4.14;77.25
18697;BME280;22617;43.690;27.956;2023-02-08T17:59:43;101211.03;;;-4.14;77.17
18697;BME280;22617;43.690;27.956;2023-02-08T18:04:46;101217.47;;;-4.28;77.12
18697;BME280;22617;43.690;27.956;2023-02-08T18:09:52;101219.28;;;-4.35;77.69
18697;BME280;22617;43.690;27.956;2023-02-08T18:14:57;101216.47;;;-4.38;77.19
18697;BME280;22617;43.690;27.956;2023-02-08T18:20:01;101212.28;;;-4.57;77.65
18697;BME280;22617;43.690;27.956;2023-02-08T18:25:05;101210.13;;;-4.71;77.04
18697;BME280;22617;43.690;27.956;2023-02-08T18:30:11;101212.28;;;-4.84;77.42
18697;BME280;22617;43.690;27.956;2023-02-08T18:35:16;101210.38;;;-4.87;78.07
18697;BME280;22617;43.690;27.956;2023-02-08T18:40:22;101219.53;;;-4.70;78.28
18697;BME280;22617;43.690;27.956;2023-02-08T18:45:31;101223.69;;;-4.62;78.30
18697;BME280;22617;43.690;27.956;2023-02-08T18:50:37;101213.22;;;-4.65;77.99
18697;BME280;22617;43.690;27.956;2023-02-08T18:55:50;101214.25;;;-4.63;78.87
18697;BME280;22617;43.690;27.956;2023-02-08T19:01:04;101216.44;;;-4.76;78.50
18697;BME280;22617;43.690;27.956;2023-02-08T19:06:11;101219.91;;;-4.84;78.83
18697;BME280;22617;43.690;27.956;2023-02-08T19:11:17;101215.72;;;-4.84;78.69
18697;BME280;22617;43.690;27.956;2023-02-08T19:16:22;101216.75;;;-5.00;78.71
18697;BME280;22617;43.690;27.956;2023-02-08T19:21:27;101214.78;;;-5.03;79.21
18697;BME280;22617;43.690;27.956;2023-02-08T19:26:34;101219.75;;;-5.04;79.39
18697;BME280;22617;43.690;27.956;2023-02-08T19:31:43;101216.38;;;-5.13;79.38
18697;BME280;22617;43.690;27.956;2023-02-08T19:36:48;101221.44;;;-5.13;79.77
18697;BME280;22617;43.690;27.956;2023-02-08T19:41:53;101205.81;;;-4.99;79.85
18697;BME280;22617;43.690;27.956;2023-02-08T19:47:01;101207.13;;;-4.94;79.70
18697;BME280;22617;43.690;27.956;2023-02-08T19:52:04;101200.59;;;-5.01;79.41
18697;BME280;22617;43.690;27.956;2023-02-08T19:57:08;101197.72;;;-4.95;79.76
18697;BME280;22617;43.690;27.956;2023-02-08T20:02:15;101200.69;;;-4.91;79.33
18697;BME280;22617;43.690;27.956;2023-02-08T20:07:19;101197.56;;;-4.97;79.49
18697;BME280;22617;43.690;27.956;2023-02-08T20:12:24;101204.28;;;-4.97;79.16
18697;BME280;22617;43.690;27.956;2023-02-08T20:17:29;101211.88;;;-4.89;79.01
18697;BME280;22617;43.690;27.956;2023-02-08T20:22:32;101197.50;;;-4.88;78.80
18697;BME280;22617;43.690;27.956;2023-02-08T20:27:36;101196.84;;;-4.77;78.74
18697;BME280;22617;43.690;27.956;2023-02-08T20:32:41;101187.63;;;-4.85;78.75
18697;BME280;22617;43.690;27.956;2023-02-08T20:37:45;101196.25;;;-5.02;78.48
18697;BME280;22617;43.690;27.956;2023-02-08T20:42:49;101191.75;;;-4.96;78.29
18697;BME280;22617;43.690;27.956;2023-02-08T20:47:54;101193.69;;;-5.02;78.62
18697;BME280;22617;43.690;27.956;2023-02-08T20:52:57;101197.63;;;-5.05;78.49
18697;BME280;22617;43.690;27.956;2023-02-08T20:58:01;101209.59;;;-5.04;78.49
18697;BME280;22617;43.690;27.956;2023-02-08T21:03:06;101210.75;;;-5.01;78.73
18697;BME280;22617;43.690;27.956;2023-02-08T21:08:09;101211.34;;;-5.03;78.22
18697;BME280;22617;43.690;27.956;2023-02-08T21:13:13;101211.19;;;-4.96;78.32
18697;BME280;22617;43.690;27.956;2023-02-08T21:18:18;101213.19;;;-5.11;78.03
18697;BME280;22617;43.690;27.956;2023-02-08T21:23:21;101223.22;;;-5.12;78.03
18697;BME280;22617;43.690;27.956;2023-02-08T21:28:25;101220.97;;;-5.09;78.29
18697;BME280;22617;43.690;27.956;2023-02-08T21:33:31;101218.69;;;-5.06;77.73
18697;BME280;22617;43.690;27.956;2023-02-08T21:38:35;101222.94;;;-5.15;77.97
18697;BME280;22617;43.690;27.956;2023-02-08T21:43:39;101221.28;;;-5.15;77.66
18697;BME280;22617;43.690;27.956;2023-02-08T21:48:44;101230.28;;;-5.18;77.72
18697;BME280;22617;43.690;27.956;2023-02-08T21:54:05;101231.03;;;-5.19;77.92
18697;BME280;22617;43.690;27.956;2023-02-08T21:59:26;101234.31;;;-5.20;78.03
18697;BME280;22617;43.690;27.956;2023-02-08T22:04:31;101222.97;;;-5.24;77.79
18697;BME280;22617;43.690;27.956;2023-02-08T22:09:35;101223.09;;;-5.22;78.08
18697;BME280;22617;43.690;27.956;2023-02-08T22:14:40;101235.13;;;-5.39;77.88
18697;BME280;22617;43.690;27.956;2023-02-08T22:19:45;101227.72;;;-5.54;77.60
18697;BME280;22617;43.690;27.956;2023-02-08T22:24:49;101223.06;;;-5.50;77.97
18697;BME280;22617;43.690;27.956;2023-02-08T22:29:52;101227.09;;;-5.43;77.62
18697;BME280;22617;43.690;27.956;2023-02-08T22:34:57;101236.53;;;-5.59;77.73
18697;BME280;22617;43.690;27.956;2023-02-08T22:40:02;101245.25;;;-5.66;77.47
18697;BME280;22617;43.690;27.956;2023-02-08T22:45:07;101217.59;;;-5.80;77.21
18697;BME280;22617;43.690;27.956;2023-02-08T22:50:12;101223.50;;;-5.98;77.81
18697;BME280;22617;43.690;27.956;2023-02-08T22:55:16;101216.19;;;-5.87;77.41
18697;BME280;22617;43.690;27.956;2023-02-08T23:00:19;101215.72;;;-6.08;77.21
18697;BME280;22617;43.690;27.956;2023-02-08T23:05:24;101211.72;;;-6.15;77.67
18697;BME280;22617;43.690;27.956;2023-02-08T23:10:28;101207.53;;;-6.23;77.62
18697;BME280;22617;43.690;27.956;2023-02-08T23:15:31;101205.44;;;-6.27;77.73
18697;BME280;22617;43.690;27.956;2023-02-08T23:20:37;101205.78;;;-6.24;77.50
18697;BME280;22617;43.690;27.956;2023-02-08T23:25:41;101213.53;;;-6.40;77.90
18697;BME280;22617;43.690;27.956;2023-02-08T23:30:44;101212.50;;;-6.33;77.83
18697;BME280;22617;43.690;27.956;2023-02-08T23:35:49;101216.06;;;-6.40;77.29
18697;BME280;22617;43.690;27.956;2023-02-08T23:40:53;101222.44;;;-6.52;77.75
18697;BME280;22617;43.690;27.956;2023-02-08T23:45:56;101224.97;;;-6.69;78.56
18697;BME280;22617;43.690;27.956;2023-02-08T23:51:04;101220.69;;;-6.53;78.32
18697;BME280;22617;43.690;27.956;2023-02-08T23:56:13;101227.69;;;-6.59;77.86
